Strona główna
METAR-TAF:

METAR-TAF

Lotnisko :

Port lotniczy Jayapura-Sentani

Jayapura, Indonezja

Szerokość geograficzna: 02-34-37S, Długość geograficzna: 140-30-58E, wysokość: 88 m

Aktualna obserwacja pogody

Raport powstał 38 minut temu, godzina 07:00 UTC
Wiatr 18 kt od zachód
Temperatura 32°C
Wilgotność 52%
Ciśnienie 1006 hPa
Widzialność 10 km lub więcej
Rozproszone chmury na wysokości 1300 ft

METAR: WAJJ 220700Z 28018KT 9999 SCT013 32/21 Q1006 NOSIG

czas: 14:38 (07:38 UTC)


TAF: brakujący

Obserwacja i prognoza pogody dla ponad 4000 lotnisk (raport METAR i TAF).

Dostępne stacje oznaczono żółtymi i czerwonymi punktami na mapie.

Najedź kursorem aby zobaczyć nazwę stacji.

Kliknij aby zobaczyć obserwacje i prognozy pogody.

Aby zmienić mapę: kliknij na zielony przycisk z czarnym krzyżykiem, aby powiększyć; na zielony przycisk z myślnikiem, aby pomniejszyć; na zielone strzałki, aby przejść do map sąsiednich.


METAR-TAF: